WetterOnline ( https://www.wetteronline.at )

Wetter aktuell Pforzheim

Aktuelles Wetter: Mühlacker (245m)

6-stündlich | Neueste Meldungen
Ortszeit Temperatur Wetter
Mo, 21.10. 14:00 16.2° C bedeckt
Mo, 21.10. 8:00 11.7° C wolkig
Mo, 21.10. 2:00 12.3° C leicht bewölkt
So, 20.10. 20:00 13.6° C bedeckt
So, 20.10. 14:00 17.4° C bedeckt
So, 20.10. 8:00 11.4° C bedeckt
So, 20.10. 2:00 12.5° C leichter Regen
Sa, 19.10. 20:00 13.0° C leichter Regen
Ortszeit Temperatur Wetter
Mo, 21.10. 19:00 13.4° C bewölkt
Mo, 21.10. 18:50 13.4° C bewölkt
Mo, 21.10. 18:40 13.7° C wolkig
Mo, 21.10. 18:30 13.8° C wolkig
Mo, 21.10. 18:20 13.8° C wolkig
Mo, 21.10. 18:10 14.0° C wolkig
Mo, 21.10. 18:00 14.7° C bewölkt
Mo, 21.10. 17:30 14.8° C bedeckt
Mo, 21.10. 17:00 15.1° C bedeckt
Mo, 21.10. 16:30 15.3° C bewölkt
Mo, 21.10. 16:00 15.5° C wolkig
Ortszeit Relative Feuchte Sichtweite
Mo, 21.10. 14:00 82% 55 km
Mo, 21.10. 8:00 100% 3.7 km
Mo, 21.10. 2:00 99% 2.4 km
So, 20.10. 20:00 99% 12 km
So, 20.10. 14:00 74% 19 km
So, 20.10. 8:00 100% 3.2 km
So, 20.10. 2:00 99% 5.0 km
Sa, 19.10. 20:00 98% 16 km
Ortszeit Relative Feuchte Sichtweite
Mo, 21.10. 19:00 91% 70 km
Mo, 21.10. 18:50 91% -
Mo, 21.10. 18:40 89% -
Mo, 21.10. 18:30 84% 70 km
Mo, 21.10. 18:20 84% -
Mo, 21.10. 18:10 85% -
Mo, 21.10. 18:00 82% 12 km
Mo, 21.10. 17:30 80% 70 km
Mo, 21.10. 17:00 77% 70 km
Mo, 21.10. 16:30 76% 70 km
Mo, 21.10. 16:00 79% 70 km
Ortszeit Niederschlagsmenge Niederschlagsart
Mo, 21.10. 14:00 0.1 l/m2 in 6 Std. Regen
Mo, 21.10. 8:00 0.1 l/m2 in 12 Std. Regen
Mo, 21.10. 2:00 0.1 l/m2 in 6 Std. Regen
So, 20.10. 20:00 0.0 l/m2 in 12 Std. -
So, 20.10. 14:00 0.0 l/m2 in 6 Std. -
So, 20.10. 8:00 12 l/m2 in 12 Std. Regen
So, 20.10. 2:00 11 l/m2 in 6 Std. Regen
Sa, 19.10. 20:00 2 l/m2 in 12 Std. Regen
Ortszeit Niederschlagsmenge Niederschlagsart
Mo, 21.10. 19:00 0.0 l/m2 in 1 Std. -
Mo, 21.10. 18:50 keine Meldung -
Mo, 21.10. 18:40 keine Meldung -
Mo, 21.10. 18:30 0.0 l/m2 in 1 Std. -
Mo, 21.10. 18:20 keine Meldung -
Mo, 21.10. 18:10 keine Meldung -
Mo, 21.10. 18:00 0.0 l/m2 in 1 Std. -
Mo, 21.10. 17:30 0.0 l/m2 in 1 Std. -
Mo, 21.10. 17:00 0.0 l/m2 in 1 Std. -
Mo, 21.10. 16:30 0.0 l/m2 in 1 Std. -
Mo, 21.10. 16:00 0.0 l/m2 in 1 Std. -
Ortszeit Stärke Spitze Richtung
km/h Bft. km/h Grad Sektor
Mo, 21.10. 14:00 9 2 20 300° NW
Mo, 21.10. 8:00 4 1 11 170° S
Mo, 21.10. 2:00 4 1 22 160° S
So, 20.10. 20:00 0 0 14 - -
So, 20.10. 14:00 4 1 25 100° O
So, 20.10. 8:00 4 1 14 110° O
So, 20.10. 2:00 6 1 17 80° O
Sa, 19.10. 20:00 4 1 22 120° SO
Ortszeit Stärke Spitze Richtung
km/h Bft. km/h Grad Sektor
Mo, 21.10. 19:00 0 0 11 - -
Mo, 21.10. 18:50 0 0 - 230° SW
Mo, 21.10. 18:40 2 1 - 210° SW
Mo, 21.10. 18:30 6 1 9 330° NW
Mo, 21.10. 18:20 6 1 - 330° NW
Mo, 21.10. 18:10 7 2 - 320° NW
Mo, 21.10. 18:00 6 1 17 290° W
Mo, 21.10. 17:30 7 2 18 290° W
Mo, 21.10. 17:00 9 2 20 300° NW
Mo, 21.10. 16:30 7 2 22 280° W
Mo, 21.10. 16:00 13 3 22 300° NW
Ortszeit Untergrenze Bedeckung Gattung
total tief tief mittel hoch
Mo, 21.10. 14:00 1800 m 8/8 8/8 - - -
Mo, 21.10. 8:00 1800 m 6/8 3/8 - - -
Mo, 21.10. 2:00 4800 m 3/8 3/8 - - -
So, 20.10. 20:00 5100 m 8/8 8/8 - - -
So, 20.10. 14:00 3900 m 8/8 8/8 - - -
So, 20.10. 8:00 3300 m 8/8 8/8 - - -
So, 20.10. 2:00 1260 m 7/8 7/8 - - -
Sa, 19.10. 20:00 2100 m 5/8 5/8 - - -
Ortszeit Bedeckungsgrad in Achtel und Wolkenuntergrenze
Mo, 21.10. 19:00 4(1500m) 8(3300m)
Mo, 21.10. 18:50 4(1500m) 8(3300m)
Mo, 21.10. 18:40 1(1500m) 8(3600m)
Mo, 21.10. 18:30 1(2400m) 8(3600m)
Mo, 21.10. 18:20 1(2400m) 8(3600m)
Mo, 21.10. 18:10 1(1500m) 3(2400m) 8(3900m)
Mo, 21.10. 18:00 6(1500m) 7(2400m) 7(3900m)
Mo, 21.10. 17:30 8(1500m)
Mo, 21.10. 17:00 8(1500m)
Mo, 21.10. 16:30 7(1500m) 7(4800m)
Mo, 21.10. 16:00 2(1500m) 8(4500m)
Ortszeit Luftdruck NN (hPa) Tendenz (hPa in 3 Std.)
Mo, 21.10. 14:00 1020 + 2,0
Mo, 21.10. 8:00 1017 + 1,7
Mo, 21.10. 2:00 1012 + 2,4
So, 20.10. 20:00 1009 + 1,1
So, 20.10. 14:00 1007 - 1,4
So, 20.10. 8:00 1009 + 0,8
So, 20.10. 2:00 1010 - 0,6
Sa, 19.10. 20:00 1010 + 0,6
Ortszeit Luftdruck NN (hPa) Tendenz (hPa in 3 Std.)
Mo, 21.10. 19:00 1022 + 1,3
Mo, 21.10. 18:50 1022 keine Meldung
Mo, 21.10. 18:40 1022 keine Meldung
Mo, 21.10. 18:30 1021 + 0,8
Mo, 21.10. 18:20 1021 keine Meldung
Mo, 21.10. 18:10 1021 keine Meldung
Mo, 21.10. 18:00 1021 + 1,0
Mo, 21.10. 17:30 1021 + 0,6
Mo, 21.10. 17:00 1021 + 0,5
Mo, 21.10. 16:30 1021 + 0,6
Mo, 21.10. 16:00 1020 + 0,6
Ortszeit Schneehöhe (cm)
Mo, 21.10. 14:00 0
Mo, 21.10. 8:00 0
Mo, 21.10. 2:00 0
So, 20.10. 20:00 0
So, 20.10. 14:00 0
So, 20.10. 8:00 0
So, 20.10. 2:00 0
Sa, 19.10. 20:00 0
Ortszeit Schneehöhe (cm)
Mo, 21.10. 19:00 0
Mo, 21.10. 18:50 0
Mo, 21.10. 18:40 0
Mo, 21.10. 18:30 0
Mo, 21.10. 18:20 0
Mo, 21.10. 18:10 0
Mo, 21.10. 18:00 0
Mo, 21.10. 17:30 0
Mo, 21.10. 17:00 0
Mo, 21.10. 16:30 0
Mo, 21.10. 16:00 0
Link zu dieser Seite / Seite empfehlen

Das Wetter in ...